createdAt,value
2022-11-19T00:01:14.404Z,6.37
2022-11-19T00:06:41.797Z,5.40
2022-11-19T00:12:25.760Z,6.30
2022-11-19T00:18:01.424Z,7.37
2022-11-19T00:23:48.719Z,6.07
2022-11-19T00:29:17.989Z,6.70
2022-11-19T00:34:47.515Z,7.27
2022-11-19T00:40:24.123Z,6.97
2022-11-19T00:45:51.590Z,7.60
2022-11-19T00:51:22.547Z,7.67
2022-11-19T00:56:52.235Z,7.53
2022-11-19T01:02:17.815Z,8.00
2022-11-19T01:08:17.229Z,8.27
2022-11-19T01:13:44.001Z,8.10
2022-11-19T01:19:09.949Z,7.50
2022-11-19T01:25:14.758Z,8.20
2022-11-19T01:30:54.138Z,8.43
2022-11-19T01:36:31.768Z,8.67
2022-11-19T01:42:02.994Z,7.60
2022-11-19T01:47:55.380Z,7.93
2022-11-19T01:53:23.373Z,8.77
2022-11-19T01:58:57.898Z,9.90
2022-11-19T02:04:32.736Z,9.83
2022-11-19T02:10:03.389Z,10.83
2022-11-19T02:16:19.956Z,8.97
2022-11-19T02:21:59.533Z,8.30
2022-11-19T02:28:22.079Z,8.53
2022-11-19T02:40:19.301Z,8.50
2022-11-19T02:46:08.371Z,7.93
2022-11-19T02:52:01.646Z,9.03
2022-11-19T02:57:33.565Z,6.80
2022-11-19T03:03:37.254Z,9.07
2022-11-19T03:09:15.584Z,8.37
2022-11-19T03:15:03.765Z,8.43
2022-11-19T03:20:53.369Z,10.90
2022-11-19T03:26:30.559Z,9.60
2022-11-19T03:32:04.270Z,9.50
2022-11-19T03:37:31.442Z,9.67
2022-11-19T03:43:13.982Z,10.40
2022-11-19T03:54:28.924Z,9.60
2022-11-19T04:00:13.335Z,8.47
2022-11-19T04:05:44.029Z,10.47
2022-11-19T04:11:14.928Z,8.13
2022-11-19T04:16:50.357Z,8.37
2022-11-19T04:22:30.131Z,11.97
2022-11-19T04:27:57.408Z,11.17
2022-11-19T04:33:24.968Z,7.97
2022-11-19T04:38:57.123Z,10.30
2022-11-19T04:44:35.713Z,11.03
2022-11-19T04:50:08.307Z,8.90
2022-11-19T04:55:34.381Z,11.60
2022-11-19T05:01:17.148Z,9.70
2022-11-19T05:06:55.601Z,9.10
2022-11-19T05:12:32.632Z,9.30
2022-11-19T05:18:00.142Z,8.97
2022-11-19T05:23:31.391Z,9.00
2022-11-19T05:29:09.906Z,8.70
2022-11-19T05:34:46.534Z,9.73
2022-11-19T05:46:33.884Z,10.70
2022-11-19T05:52:16.860Z,10.70
2022-11-19T05:57:56.695Z,9.60
2022-11-19T06:03:24.680Z,10.83
2022-11-19T06:09:08.577Z,9.40
2022-11-19T06:14:50.061Z,12.63
2022-11-19T06:20:27.324Z,8.90
2022-11-19T06:26:08.632Z,9.40
2022-11-19T06:37:39.671Z,10.37
2022-11-19T06:43:08.316Z,8.37
2022-11-19T06:48:45.684Z,10.33
2022-11-19T06:54:15.951Z,10.23
2022-11-19T06:59:47.532Z,11.17
2022-11-19T07:05:20.022Z,9.17
2022-11-19T07:10:47.067Z,9.70
2022-11-19T07:16:15.275Z,11.00
2022-11-19T07:21:56.616Z,8.57
2022-11-19T07:27:29.056Z,8.63
2022-11-19T07:33:03.226Z,10.60
2022-11-19T07:38:38.038Z,10.80
2022-11-19T07:44:06.758Z,10.27
2022-11-19T07:49:40.362Z,9.60
2022-11-19T07:55:18.630Z,10.57
2022-11-19T08:01:04.520Z,8.60
2022-11-19T08:06:35.007Z,9.80
2022-11-19T08:13:03.596Z,15.87
2022-11-19T08:18:31.470Z,11.07
2022-11-19T08:23:57.305Z,9.43
2022-11-19T08:29:29.483Z,10.87
2022-11-19T08:34:59.821Z,8.97
2022-11-19T08:40:50.278Z,10.80
2022-11-19T08:46:24.415Z,9.60
2022-11-19T08:51:48.521Z,9.43
2022-11-19T08:57:25.797Z,8.77
2022-11-19T09:02:51.357Z,9.83
2022-11-19T09:08:27.536Z,9.63
2022-11-19T09:13:52.023Z,8.73
2022-11-19T09:19:19.918Z,9.20
2022-11-19T09:25:01.555Z,10.13
2022-11-19T09:30:35.761Z,11.03
2022-11-19T09:36:15.114Z,9.03
2022-11-19T09:41:57.924Z,8.93
2022-11-19T09:47:32.139Z,10.47
2022-11-19T09:53:16.691Z,8.83
2022-11-19T09:58:49.801Z,11.90
2022-11-19T10:04:15.012Z,10.53
2022-11-19T10:10:13.088Z,8.80
2022-11-19T10:15:56.576Z,12.43
2022-11-19T10:21:34.610Z,10.70
2022-11-19T10:27:07.255Z,7.67
2022-11-19T10:32:39.386Z,9.60
2022-11-19T10:38:13.467Z,18.17
2022-11-19T10:43:48.905Z,15.50
2022-11-19T10:49:18.033Z,12.93
2022-11-19T10:54:51.505Z,10.40
2022-11-19T11:00:26.624Z,12.33
2022-11-19T11:06:05.612Z,8.17
2022-11-19T11:11:51.907Z,11.73
2022-11-19T11:17:29.721Z,8.67
2022-11-19T11:23:18.417Z,10.27
2022-11-19T11:28:59.972Z,9.23
2022-11-19T11:34:36.591Z,8.50
2022-11-19T11:40:05.302Z,8.60
2022-11-19T11:45:39.534Z,7.57
2022-11-19T11:51:12.544Z,7.73
2022-11-19T12:02:37.457Z,8.33
2022-11-19T12:08:27.013Z,6.97
2022-11-19T12:14:24.278Z,7.30
2022-11-19T12:20:20.611Z,8.60
2022-11-19T12:26:01.625Z,8.13
2022-11-19T12:31:44.184Z,6.60
2022-11-19T12:37:28.280Z,8.57
2022-11-19T12:43:14.443Z,7.07
2022-11-19T12:49:02.432Z,5.50
2022-11-19T12:54:43.009Z,6.43
2022-11-19T13:00:28.214Z,6.60
2022-11-19T13:05:58.833Z,6.63
2022-11-19T13:11:28.979Z,6.60
2022-11-19T13:17:21.399Z,6.87
2022-11-19T13:23:06.396Z,7.33
2022-11-19T13:28:40.589Z,6.07
2022-11-19T13:34:22.831Z,8.17
2022-11-19T13:39:52.730Z,6.93
2022-11-19T13:45:24.857Z,7.23
2022-11-19T13:50:53.356Z,7.47
2022-11-19T13:56:29.873Z,6.50
2022-11-19T14:02:04.950Z,5.50
2022-11-19T14:08:17.674Z,4.37
2022-11-19T14:14:01.144Z,4.80
2022-11-19T14:26:10.957Z,6.37
2022-11-19T14:31:45.715Z,5.40
2022-11-19T14:37:24.464Z,5.40
2022-11-19T14:43:40.012Z,6.07
2022-11-19T14:55:23.592Z,8.07
2022-11-19T15:01:20.662Z,6.70
2022-11-19T15:07:00.729Z,5.33
2022-11-19T15:12:36.236Z,5.20
2022-11-19T15:18:13.905Z,6.90
2022-11-19T15:24:00.815Z,5.33
2022-11-19T15:30:03.858Z,5.70
2022-11-19T15:35:48.897Z,5.93
2022-11-19T15:41:32.231Z,6.27
2022-11-19T15:47:05.367Z,6.57
2022-11-19T15:52:43.182Z,6.73
2022-11-19T15:58:18.520Z,6.90
2022-11-19T16:03:45.866Z,9.80
2022-11-19T16:09:10.102Z,8.40
2022-11-19T16:15:22.266Z,7.33
2022-11-19T16:20:52.271Z,7.37
2022-11-19T16:26:17.187Z,11.13
2022-11-19T16:31:40.418Z,9.13
2022-11-19T16:37:15.788Z,8.10
2022-11-19T16:42:46.329Z,8.20
2022-11-19T16:48:55.607Z,11.73
2022-11-19T16:55:01.210Z,11.67
2022-11-19T17:00:32.139Z,8.33
2022-11-19T17:06:12.107Z,13.20
2022-11-19T17:12:25.450Z,12.13
2022-11-19T17:17:55.081Z,10.23
2022-11-19T17:23:33.800Z,13.20
2022-11-19T17:29:32.404Z,11.17
2022-11-19T17:35:19.947Z,10.97
2022-11-19T17:41:08.765Z,11.10
2022-11-19T17:46:48.342Z,11.30
2022-11-19T17:52:31.515Z,13.80
2022-11-19T17:58:10.694Z,14.70
2022-11-19T18:03:45.025Z,14.03
2022-11-19T18:09:10.076Z,14.67
2022-11-19T18:14:51.598Z,13.63
2022-11-19T18:20:18.587Z,12.07
2022-11-19T18:25:43.977Z,11.73
2022-11-19T18:31:28.410Z,11.93
2022-11-19T18:37:02.578Z,9.53
2022-11-19T18:42:35.385Z,11.63
2022-11-19T18:48:01.699Z,11.90
2022-11-19T18:53:44.077Z,13.07
2022-11-19T18:59:19.264Z,14.57
2022-11-19T19:04:50.983Z,13.90
2022-11-19T19:10:23.318Z,12.13
2022-11-19T19:16:14.436Z,13.87
2022-11-19T19:21:50.791Z,15.10
2022-11-19T19:27:33.833Z,16.30
2022-11-19T19:33:00.325Z,17.13
2022-11-19T19:44:33.257Z,15.43
2022-11-19T19:49:58.385Z,13.47
2022-11-19T19:55:39.899Z,12.77
2022-11-19T20:01:17.946Z,15.00
2022-11-19T20:07:03.541Z,12.40
2022-11-19T20:12:50.981Z,14.63
2022-11-19T20:24:11.425Z,13.73
2022-11-19T20:30:00.102Z,13.50
2022-11-19T20:35:36.360Z,15.70
2022-11-19T20:41:18.692Z,14.27
2022-11-19T20:46:47.826Z,15.27
2022-11-19T20:52:26.351Z,14.77
2022-11-19T20:58:14.400Z,15.93
2022-11-19T21:03:52.859Z,18.93
2022-11-19T21:09:26.305Z,18.83
2022-11-19T21:15:05.526Z,17.67
2022-11-19T21:20:31.553Z,17.70
2022-11-19T21:26:02.229Z,15.57
2022-11-19T21:31:53.716Z,16.77
2022-11-19T21:37:34.485Z,16.33
2022-11-19T21:43:06.126Z,17.40
2022-11-19T21:48:33.796Z,18.93
2022-11-19T21:54:04.308Z,15.90
2022-11-19T21:59:36.466Z,18.23
2022-11-19T22:05:11.637Z,17.90
2022-11-19T22:10:45.357Z,17.50
2022-11-19T22:16:18.878Z,15.20
2022-11-19T22:21:59.674Z,15.60
2022-11-19T22:27:23.984Z,18.33
2022-11-19T22:32:54.112Z,18.17
2022-11-19T22:38:52.351Z,17.60
2022-11-19T22:44:25.602Z,18.80
2022-11-19T22:49:57.531Z,17.97
2022-11-19T22:55:26.374Z,16.63
2022-11-19T23:01:16.000Z,19.40
2022-11-19T23:07:08.333Z,17.43
2022-11-19T23:13:02.920Z,17.73
2022-11-19T23:18:31.658Z,17.53
2022-11-19T23:24:23.432Z,16.20
2022-11-19T23:29:52.984Z,15.83
2022-11-19T23:35:22.356Z,17.03
2022-11-19T23:40:48.807Z,19.40
2022-11-19T23:46:37.108Z,16.10
2022-11-19T23:52:02.562Z,16.57
2022-11-19T23:57:27.458Z,16.83
